PADK/ADK METAR and TAF weather

Enter ICAO airport designator
Station Type Date Time Source
PADK METAR 2021/05/14 12:56 UTC NOAA

PADK 141256Z AUTO 24022G32KT 10SM -RA OVC010 04/03 A2931 RMK AO2 PK WND 24032/1250 SLP924 P0003 T00440033


Station Type Date Time Source
PADK Decoded METAR 2021/05/14 12:56 UTC NOAA

Adak Island, Adak Airport, AK, United States (PADK) 51-52-40N 176-38-45W 4M
May 14, 2021 - 08:56 AM EDT / 2021.05.14 1256 UTC
Wind: from the WSW (240 degrees) at 25 MPH (22 KT) gusting to 37 MPH (32 KT):0
Visibility: 10 mile(s):0
Sky conditions: overcast
Weather: light rain
Precipitation last hour: 0.03 inches
Temperature: 39.9 F (4.4 C)
Dew Point: 37.9 F (3.3 C)
Relative Humidity: 92%
Pressure (altimeter): 29.31 in. Hg (992 hPa)
ob: PADK 141256Z AUTO 24022G32KT 10SM -RA OVC010 04/03 A2931 RMK AO2 PK WND 24032/1250 SLP924 P0003 T00440033
cycle: 13

Station Type Date Time Source
PADK TAF 2007/04/07 12:54 UTC NOAA

TAF PADK 070404 33010G15KT 9999 FEW025 BKN030 OVC050 QNH2900INS T03/00Z TM01/18Z COR 1205 LAST NO
AMDS AFT 0712;

Example: see airport list